Yilan, Taiwan

1:59 AM CST on December 19, 2014 (GMT +0800)
IU53F0U73 | Change Station
CLOSE
Current Station
Personal Weather Station
Location: Yonghe City, Taiwan
Elevation: 62 ft
Nearby Weather Stations

Elev 62 ft 25.00 °N, 121.51 °E | Updated 3 minutes ago

Mostly Cloudy
Mostly Cloudy
61.0 °F
Feels Like 61.0 °F
N
0.0
Wind Variable Wind from SW
Gusts 0.0 mph

Today
High -- | Low -- °F
--% Chance of Precip.
Yesterday
High -- | Low -- °F
Precip. -- in
6:31 AM 5:07 PM
Waning Crescent, 13% visible
Pressure 30.21 in
Visibility 6.2 miles
Clouds Few 3000 ft
Scattered Clouds 10000 ft
Mostly Cloudy 12000 ft
Dew Point 54 °F
Humidity 77%
Rainfall 0.00 in
Snow Depth Not available.
UV 0 out of 12
Pollen Not available.
Air Quality Not available.
Flu Activity Not available.
METAR RCTP 181730Z 09011KT 9999 FEW030 SCT100 BKN120 17/10 Q1023 NOSIG RMK A3022

More Conditions Fewer Conditions

Pressure 30.21 in
Visibility 6.2 miles
Clouds Few 3000 ft
Scattered Clouds 10000 ft
Mostly Cloudy 12000 ft
Dew Point 54 °F
Humidity 77%
Rainfall 0.00 in
Snow Depth Not available.
UV 0 out of 12
Pollen Not available.
Air Quality Not available.
Flu Activity Not available.
METAR RCTP 181730Z 09011KT 9999 FEW030 SCT100 BKN120 17/10 Q1023 NOSIG RMK A3022

More Conditions Fewer Conditions

10-Day Weather Forecast

Almanac

Astronomy

Dec. 19, 2014 Rise Set
Actual Time
Civil Twilight
Nautical Twilight
Astronomical Twilight
Moon
Length of Visible Light
Length of Day
Tomorrow will be .
, % of the Moon is Illuminated

Today's Extremes

Country Highs Country Lows

Community

WunderPhotos

Upload Photos

1,778,969 photos uploaded!

WunderBlogs® & News

Nearby

Air Quality

  Air Quality AQ Index Pollutant
Not available.

Snow Depth

Station Depth Elevation

Earthquake Activity

City Distance Mag. Time & Date
Minimum magnitude displayed is 2.5.

Coastal Water Temperatures

Place Temperature

Nearby Weather Stations